Weather at Seattle Tacoma International Airport

Public forecast

Using degrees Fahrenheit for public forecast. Weather courtesy of forecast.io.

Current aviation weather report (METAR) for Seattle Tacoma International Airport

Retrieved 2022/06/30 10:53 UTC (9 minutes ago):

KSEA 301053Z 02007KT 10SM FEW030 13/11 A3015 RMK AO2 SLP216 T01280106

Aviation forecast (TAF) for Seattle Tacoma International Airport

Retrieved 2022/06/30 06:22 UTC (5 hours ago):

TAF KSEA 300520Z 3006/0112 32005KT P6SM SCT040 FM301000 36003KT P6SM BKN030 FM301500 02004KT P6SM BKN050 FM301900 33006KT P6SM SCT200 FM010600 VRB03KT P6SM BKN200